Time;durP1;ratioP1;P1;durP2;ratioP2;P2;SDS_P1;SDS_P2;PMS_P1;PMS_P2;Temp;Humidity;BMP_temperature;BMP_pressure;BME280_temperature;BME280_humidity;BME280_pressure;Samples;Min_cycle;Max_cycle;Signal;HPM_P1;HPM_P2
2022/04/11 00:02:14;;;;;;;;;4.00;4.00;;;;;11.03;91.50;101192.66;6399661;22;46217;-93
2022/04/11 00:04:40;;;;;;;;;5.67;4.00;;;;;11.01;91.57;101189.03;6370551;22;45300;-93
2022/04/11 00:07:06;;;;;;;;;3.00;3.00;;;;;11.04;91.80;101191.81;6371296;22;45270;-94
2022/04/11 00:09:31;;;;;;;;;3.67;3.67;;;;;10.99;91.44;101194.22;6371191;22;45266;-93
2022/04/11 00:11:56;;;;;;;;;3.00;2.00;;;;;11.02;91.81;101193.47;6370886;22;47127;-94
2022/04/11 00:14:23;;;;;;;;;5.67;3.00;;;;;10.98;92.08;101195.03;6371233;22;45479;-93
2022/04/11 00:16:48;;;;;;;;;2.00;2.00;;;;;10.98;92.01;101207.28;6370807;22;45429;-93
2022/04/11 00:19:14;;;;;;;;;3.00;3.00;;;;;10.90;92.24;101185.88;6397700;22;45480;-92
2022/04/11 00:21:39;;;;;;;;;4.00;3.00;;;;;10.86;92.03;101176.03;6370979;22;47218;-92
2022/04/11 00:24:05;;;;;;;;;3.00;3.00;;;;;10.93;92.15;101191.28;6371551;22;45307;-92
2022/04/11 00:26:30;;;;;;;;;3.33;3.33;;;;;10.78;91.77;101163.41;6400172;22;45378;-93
2022/04/11 00:28:56;;;;;;;;;2.00;2.00;;;;;10.89;92.44;101181.44;6371656;22;45395;-91
2022/04/11 00:31:21;;;;;;;;;2.33;2.33;;;;;10.82;92.67;101165.34;6371907;22;47224;-92
2022/04/11 00:33:46;;;;;;;;;4.00;3.00;;;;;10.79;92.61;101156.44;6400756;22;45358;-92
2022/04/11 00:36:12;;;;;;;;;3.67;3.00;;;;;10.78;92.49;101142.41;6371155;22;45366;-92
2022/04/11 00:38:37;;;;;;;;;3.33;3.00;;;;;10.78;92.22;101150.28;6398436;22;45445;-92
2022/04/11 00:41:03;;;;;;;;;2.33;2.33;;;;;10.70;93.48;101122.72;6371874;22;46723;-92
2022/04/11 00:43:46;;;;;;;;;3.00;2.33;;;;;10.77;92.88;101135.34;6371851;22;45402;-91
2022/04/11 00:46:12;;;;;;;;;2.33;2.33;;;;;10.75;92.83;101128.19;6371239;22;45644;-93
2022/04/11 00:48:38;;;;;;;;;2.00;2.00;;;;;10.69;92.93;101129.72;6371457;22;45602;-92
2022/04/11 00:51:14;;;;;;;;;1.33;1.33;;;;;10.72;92.42;101132.47;6371195;22;47429;-92
2022/04/11 00:53:43;;;;;;;;;6.67;2.00;;;;;10.69;92.66;101129.72;6371821;22;45803;-92
2022/04/11 00:56:12;;;;;;;;;2.00;2.00;;;;;10.66;92.99;101118.16;6371479;22;45193;-92
2022/04/11 00:58:38;;;;;;;;;2.00;2.00;;;;;10.61;92.89;101116.22;6371371;22;45476;-92
2022/04/11 01:01:05;;;;;;;;;3.33;1.67;;;;;10.67;92.99;101112.09;6371517;22;48030;-93
2022/04/11 01:03:32;;;;;;;;;5.33;3.00;;;;;10.55;93.05;101091.34;6371772;22;45523;-92
2022/04/11 01:05:57;;;;;;;;;1.00;1.00;;;;;10.63;93.20;101103.16;6371215;22;45623;-91
2022/04/11 01:08:23;;;;;;;;;2.00;2.00;;;;;10.64;92.61;101109.31;6371996;22;45287;-92
2022/04/11 01:10:48;;;;;;;;;2.00;2.00;;;;;10.55;92.97;101097.50;6371611;22;48021;-93
2022/04/11 01:13:15;;;;;;;;;2.00;1.33;;;;;10.54;93.35;101090.44;6372224;22;45187;-91
2022/04/11 01:15:40;;;;;;;;;3.67;2.00;;;;;10.52;92.96;101081.59;6400640;22;45447;-92
2022/04/11 01:18:06;;;;;;;;;3.00;1.67;;;;;10.49;93.10;101074.44;6371892;22;45442;-92
2022/04/11 01:20:31;;;;;;;;;3.00;2.00;;;;;10.46;93.27;101070.75;6371609;22;47456;-92
2022/04/11 01:22:57;;;;;;;;;1.67;1.67;;;;;10.49;93.00;101077.06;6401207;22;45401;-92
2022/04/11 01:25:22;;;;;;;;;2.00;2.00;;;;;10.45;93.30;101068.94;6371865;22;45469;-92
2022/04/11 01:27:47;;;;;;;;;3.00;2.00;;;;;10.53;93.55;101080.78;6372355;22;45269;-91
2022/04/11 01:30:15;;;;;;;;;2.33;2.33;;;;;10.48;93.05;101074.34;6371851;22;46894;-92
2022/04/11 01:32:41;;;;;;;;;2.00;2.00;;;;;10.36;93.34;101061.53;6372026;22;45740;-92
2022/04/11 01:35:18;;;;;;;;;1.33;1.33;;;;;10.41;93.44;101064.38;6370866;22;45224;-91
2022/04/11 01:37:43;;;;;;;;;2.00;2.00;;;;;10.32;93.19;101052.56;6371260;22;45424;-92
2022/04/11 01:40:09;;;;;;;;;2.00;2.00;;;;;10.42;93.39;101064.44;6371969;22;46849;-92
2022/04/11 01:42:34;;;;;;;;;2.00;2.00;;;;;10.32;93.30;101056.91;6372224;22;45602;-93
2022/04/11 01:45:00;;;;;;;;;4.67;2.00;;;;;10.24;93.10;101033.81;6371592;22;45254;-91
2022/04/11 01:47:25;;;;;;;;;2.00;2.00;;;;;10.36;93.28;101059.78;6370986;22;45455;-92
2022/04/11 01:49:51;;;;;;;;;1.00;1.00;;;;;10.30;92.87;101046.34;6370835;22;47018;-92
2022/04/11 01:52:16;;;;;;;;;2.00;2.00;;;;;10.23;93.22;101034.63;6371756;22;45357;-92
2022/04/11 01:54:41;;;;;;;;;2.00;2.00;;;;;10.24;93.27;101043.41;6371891;22;45348;-92
2022/04/11 01:57:07;;;;;;;;;1.00;1.00;;;;;10.24;93.50;101046.03;6372031;22;45284;-92
2022/04/11 01:59:32;;;;;;;;;1.00;1.00;;;;;10.19;93.07;101037.00;6371373;22;47951;-91
2022/04/11 02:01:58;;;;;;;;;7.33;3.33;;;;;10.21;92.80;101040.63;6371699;22;45931;-91
2022/04/11 02:04:23;;;;;;;;;1.67;1.00;;;;;10.22;92.97;101045.06;6371729;22;45397;-92
2022/04/11 02:06:49;;;;;;;;;2.00;2.00;;;;;10.19;92.67;101042.25;6372011;22;45365;-92
2022/04/11 02:09:14;;;;;;;;;2.00;2.00;;;;;10.23;93.14;101039.00;6371613;22;47187;-91
2022/04/11 02:11:39;;;;;;;;;1.00;1.00;;;;;10.14;92.92;101023.66;6371449;22;45392;-91
2022/04/11 02:14:05;;;;;;;;;1.33;1.33;;;;;10.10;92.90;101021.72;6383496;22;45288;-91
2022/04/11 02:16:30;;;;;;;;;2.00;2.00;;;;;10.12;92.43;101022.69;6400266;22;45326;-92
2022/04/11 02:18:55;;;;;;;;;2.00;2.00;;;;;10.15;92.55;101025.47;6428438;22;47065;-92
2022/04/11 02:21:21;;;;;;;;;1.00;1.00;;;;;10.13;92.73;101021.84;6401269;22;44710;-92
2022/04/11 02:23:47;;;;;;;;;3.00;2.00;;;;;10.04;92.77;101007.47;6386862;22;45202;-92
2022/04/11 02:26:12;;;;;;;;;1.00;1.00;;;;;10.07;92.25;101011.97;6399750;22;45153;-92
2022/04/11 02:28:37;;;;;;;;;0.33;0.33;;;;;10.07;92.33;101006.72;6371646;22;48153;-93
2022/04/11 02:31:03;;;;;;;;;1.00;1.00;;;;;10.08;92.04;101015.47;6371421;22;45675;-94
2022/04/11 02:33:28;;;;;;;;;3.00;2.00;;;;;10.10;92.21;101022.59;6371586;22;45346;-93
2022/04/11 02:35:54;;;;;;;;;1.00;1.00;;;;;10.03;91.91;101008.28;6371584;22;45290;-93
2022/04/11 02:38:19;;;;;;;;;2.00;2.00;;;;;10.00;92.31;101010.72;6400264;22;46807;-93
2022/04/11 02:40:46;;;;;;;;;1.00;1.00;;;;;10.00;92.36;101000.25;6371307;22;45671;-93
2022/04/11 02:43:11;;;;;;;;;1.00;1.00;;;;;9.91;92.42;100987.56;6371169;22;45440;-93
2022/04/11 02:45:36;;;;;;;;;2.00;2.00;;;;;9.98;92.47;101003.59;6370527;22;45341;-93
2022/04/11 02:48:02;;;;;;;;;1.67;1.67;;;;;9.93;92.87;101004.28;6399733;22;45365;-93
2022/04/11 02:50:27;;;;;;;;;2.67;2.33;;;;;9.95;92.44;100999.09;6370531;22;45257;-92
2022/04/11 02:52:53;;;;;;;;;3.67;1.33;;;;;9.88;92.83;100981.25;6397493;22;45245;-92
2022/04/11 02:55:18;;;;;;;;;1.00;1.00;;;;;9.81;92.65;100970.47;6371091;22;45432;-93
2022/04/11 02:57:43;;;;;;;;;1.33;1.00;;;;;9.89;92.49;100975.19;6397856;22;47989;-92
2022/04/11 03:00:12;;;;;;;;;2.67;2.67;;;;;9.92;92.65;100981.47;6370031;22;45671;-92
2022/04/11 03:02:38;;;;;;;;;2.67;2.00;;;;;9.77;92.21;100946.59;6371008;22;45255;-91
2022/04/11 03:05:04;;;;;;;;;2.33;1.33;;;;;9.82;92.66;100963.47;6370865;22;45460;-93
2022/04/11 03:07:29;;;;;;;;;4.67;2.00;;;;;9.81;92.84;100967.84;6370785;22;47679;-93
2022/04/11 03:09:55;;;;;;;;;3.00;2.00;;;;;9.79;93.23;100969.47;6371459;22;45371;-94
2022/04/11 03:12:21;;;;;;;;;2.00;2.00;;;;;9.72;93.80;100952.53;6400268;22;45374;-93
2022/04/11 03:14:49;;;;;;;;;2.00;2.00;;;;;9.67;93.99;100945.22;6397115;22;45611;-93
2022/04/11 03:17:15;;;;;;;;;1.33;1.00;;;;;9.76;94.26;100965.78;6370720;22;47193;-93
2022/04/11 03:19:41;;;;;;;;;1.00;1.00;;;;;9.66;94.56;100956.56;6371184;22;45314;-93
2022/04/11 03:22:06;;;;;;;;;2.67;1.67;;;;;9.60;94.22;100947.53;6371069;22;45191;-92
2022/04/11 03:24:32;;;;;;;;;2.67;1.33;;;;;9.54;94.72;100952.44;6370873;22;45293;-92
2022/04/11 03:26:57;;;;;;;;;2.00;2.00;;;;;9.54;94.61;100962.94;6370668;22;47843;-92
2022/04/11 03:29:23;;;;;;;;;1.33;1.33;;;;;9.50;95.39;100956.66;6370051;22;45156;-93
2022/04/11 03:31:48;;;;;;;;;5.67;2.33;;;;;9.47;95.62;100958.19;6399682;22;45592;-92
2022/04/11 03:34:14;;;;;;;;;2.00;2.00;;;;;9.44;95.63;100947.53;6397731;22;45656;-93
2022/04/11 03:36:39;;;;;;;;;2.33;2.00;;;;;9.41;95.86;100947.38;6370297;22;47874;-93
2022/04/11 03:39:05;;;;;;;;;3.00;3.00;;;;;9.42;96.02;100957.03;6370741;22;45684;-93
2022/04/11 03:41:30;;;;;;;;;2.67;2.67;;;;;9.41;96.58;100963.09;6371215;22;45313;-92
2022/04/11 03:43:56;;;;;;;;;1.00;1.00;;;;;9.34;97.23;100951.38;6399125;22;45248;-92
2022/04/11 03:46:21;;;;;;;;;3.00;3.00;;;;;9.33;96.78;100949.59;6397331;22;47955;-92
2022/04/11 03:48:46;;;;;;;;;2.67;2.67;;;;;9.28;97.12;100931.00;6371175;22;45519;-93
2022/04/11 03:51:12;;;;;;;;;3.00;2.00;;;;;9.24;97.17;100929.94;6370532;22;45695;-92
2022/04/11 03:53:37;;;;;;;;;1.00;1.00;;;;;9.25;97.04;100930.84;6370401;22;45499;-92
2022/04/11 03:56:03;;;;;;;;;1.00;1.00;;;;;9.16;97.24;100923.38;6370848;22;46983;-92
2022/04/11 03:58:28;;;;;;;;;6.00;2.33;;;;;9.16;97.20;100926.00;6369490;22;45394;-92
2022/04/11 04:00:53;;;;;;;;;2.67;2.00;;;;;9.16;97.94;100921.69;6370102;22;45574;-93
2022/04/11 04:03:19;;;;;;;;;3.00;2.00;;;;;9.10;97.49;100912.56;6399480;22;45606;-92
2022/04/11 04:05:46;;;;;;;;;4.00;3.00;;;;;9.11;97.48;100917.91;6370100;22;47712;-93
2022/04/11 04:08:13;;;;;;;;;2.67;2.33;;;;;9.04;97.48;100907.91;6399185;22;45315;-92
2022/04/11 04:10:40;;;;;;;;;4.67;3.67;;;;;9.05;97.92;100910.59;6370671;22;45256;-92
2022/04/11 04:13:06;;;;;;;;;3.00;3.00;;;;;9.00;97.70;100896.38;6399121;22;45396;-93
2022/04/11 04:15:32;;;;;;;;;2.33;2.33;;;;;8.92;97.48;100895.94;6369912;22;47478;-92
2022/04/11 04:17:57;;;;;;;;;4.00;3.00;;;;;8.92;97.94;100895.03;6398972;22;45404;-92
2022/04/11 04:20:25;;;;;;;;;3.00;3.00;;;;;8.94;98.61;100910.03;6370125;22;45810;-93
2022/04/11 04:22:53;;;;;;;;;2.00;2.00;;;;;8.82;98.01;100896.25;6371079;22;45547;-92
2022/04/11 04:25:19;;;;;;;;;3.00;2.67;;;;;8.85;98.99;100899.06;6369873;22;47141;-93
2022/04/11 04:27:44;;;;;;;;;3.67;3.00;;;;;8.88;98.98;100903.56;6370194;22;45396;-92
2022/04/11 04:30:10;;;;;;;;;3.00;3.00;;;;;8.88;99.24;100899.22;6369429;22;45156;-92
2022/04/11 04:32:35;;;;;;;;;5.67;3.33;;;;;8.86;99.75;100893.00;6370838;22;45648;-93
2022/04/11 04:35:01;;;;;;;;;6.33;3.00;;;;;8.82;99.48;100893.63;6370064;22;47458;-91
2022/04/11 04:37:27;;;;;;;;;3.25;3.25;;;;;8.71;99.89;100880.88;6370008;22;45897;-93
2022/04/11 04:39:52;;;;;;;;;6.50;4.50;;;;;8.75;99.98;100892.41;6398934;22;45775;-92
2022/04/11 04:42:22;;;;;;;;;3.67;3.00;;;;;8.61;99.95;100868.09;6369756;22;45375;-93
2022/04/11 04:44:47;;;;;;;;;8.00;6.00;;;;;8.69;99.88;100889.44;6370330;22;48223;-94
2022/04/11 04:47:15;;;;;;;;;6.00;6.00;;;;;8.58;100.00;100876.66;6396623;22;46148;-92
2022/04/11 04:49:42;;;;;;;;;3.00;3.00;;;;;8.55;100.00;100879.09;6370336;22;45347;-93
2022/04/11 04:52:08;;;;;;;;;4.25;4.25;;;;;8.52;100.00;100875.41;6399052;22;45249;-94
2022/04/11 04:54:34;;;;;;;;;6.25;5.25;;;;;8.57;100.00;100898.41;6370452;22;47093;-93
2022/04/11 04:57:00;;;;;;;;;5.33;5.33;;;;;8.53;100.00;100912.09;6370166;22;45426;-93
2022/04/11 04:59:25;;;;;;;;;3.00;3.00;;;;;8.48;100.00;100908.31;6369849;22;45858;-93
2022/04/11 05:01:50;;;;;;;;;6.00;6.00;;;;;8.46;100.00;100908.25;6369723;22;45412;-93
2022/04/11 05:04:16;;;;;;;;;5.75;3.00;;;;;8.45;100.00;100910.78;6370377;22;47172;-92
2022/04/11 05:06:41;;;;;;;;;7.00;5.00;;;;;8.43;100.00;100904.53;6369841;22;45233;-93
2022/04/11 05:09:06;;;;;;;;;7.25;7.25;;;;;8.43;100.00;100907.16;6369683;22;45242;-93
2022/04/11 05:11:32;;;;;;;;;6.00;6.00;;;;;8.45;100.00;100903.81;6396572;22;45283;-94
2022/04/11 05:13:57;;;;;;;;;5.75;5.75;;;;;8.35;100.00;100881.47;6398229;22;47048;-93
2022/04/11 05:16:23;;;;;;;;;6.00;6.00;;;;;8.36;100.00;100896.38;6371548;22;45278;-94
2022/04/11 05:18:49;;;;;;;;;6.00;6.00;;;;;8.36;100.00;100887.63;6372062;22;45151;-94
2022/04/11 05:21:14;;;;;;;;;5.75;5.75;;;;;8.41;100.00;100903.56;6370734;22;45389;-93
2022/04/11 05:23:41;;;;;;;;;4.25;4.25;;;;;8.41;100.00;100893.09;6396674;22;47039;-94
2022/04/11 05:26:07;;;;;;;;;9.00;6.25;;;;;8.40;100.00;100894.81;6371616;22;45641;-93
2022/04/11 05:28:33;;;;;;;;;2.50;2.50;;;;;8.41;100.00;100882.63;6371544;22;45385;-93
2022/04/11 05:30:59;;;;;;;;;5.50;5.50;;;;;8.39;100.00;100885.19;6371291;22;45635;-93
2022/04/11 05:33:25;;;;;;;;;7.75;5.25;;;;;8.40;100.00;100893.94;6372433;22;48409;-93
2022/04/11 05:35:50;;;;;;;;;7.00;2.75;;;;;8.34;100.00;100874.47;6371211;22;45617;-92
2022/04/11 05:38:16;;;;;;;;;6.00;6.00;;;;;8.37;100.00;100877.25;6371351;22;45347;-94
2022/04/11 05:40:42;;;;;;;;;8.75;4.75;;;;;8.45;100.00;100889.88;6371039;22;45535;-93
2022/04/11 05:43:08;;;;;;;;;6.00;5.50;;;;;8.33;100.00;100859.56;6398268;22;47322;-94
2022/04/11 05:45:33;;;;;;;;;5.00;4.25;;;;;8.36;100.00;100859.75;6371369;22;45279;-92
2022/04/11 05:47:58;;;;;;;;;7.75;6.00;;;;;8.55;100.00;100892.19;6371666;22;45218;-93
2022/04/11 05:50:24;;;;;;;;;5.25;5.25;;;;;8.54;100.00;100889.47;6371288;22;45176;-93
2022/04/11 05:52:50;;;;;;;;;7.50;7.00;;;;;8.59;100.00;100893.28;6370466;22;47713;-94
2022/04/11 05:55:15;;;;;;;;;7.00;6.25;;;;;8.60;100.00;100893.38;6374582;22;45255;-93
2022/04/11 05:57:40;;;;;;;;;6.00;6.00;;;;;8.66;100.00;100886.69;6401412;22;45166;-93
2022/04/11 06:00:07;;;;;;;;;11.75;9.25;;;;;8.64;100.00;100883.97;6427632;22;45040;-93
2022/04/11 06:02:32;;;;;;;;;9.50;6.50;;;;;8.75;100.00;100889.81;6400263;22;47087;-94
2022/04/11 06:04:59;;;;;;;;;9.75;8.00;;;;;8.75;100.00;100884.56;6394970;22;45312;-93
2022/04/11 06:07:26;;;;;;;;;8.25;6.75;;;;;8.81;100.00;100882.25;6371956;22;45338;-93
2022/04/11 06:09:52;;;;;;;;;7.00;6.00;;;;;8.96;100.00;100901.34;6372437;22;45158;-92
2022/04/11 06:12:17;;;;;;;;;8.00;6.00;;;;;8.99;100.00;100897.22;6371099;22;47933;-93
2022/04/11 06:14:42;;;;;;;;;6.50;6.50;;;;;9.07;100.00;100899.34;6370802;22;45138;-94
2022/04/11 06:17:37;;;;;;;;;7.00;5.75;;;;;9.10;100.00;100891.63;6382799;22;45235;-93
2022/04/11 06:25:33;;;;;;;;;1.33;1.00;;;;;9.24;100.00;100890.66;6390240;22;45775;-86
2022/04/11 06:27:58;;;;;;;;;6.00;6.00;;;;;9.33;100.00;100887.59;6375728;22;45255;-84
2022/04/11 06:30:23;;;;;;;;;8.75;7.00;;;;;9.42;100.00;100886.28;6403500;22;50024;-84
2022/04/11 06:32:48;;;;;;;;;8.00;7.00;;;;;9.47;100.00;100874.34;6408413;22;46060;-84
2022/04/11 06:35:14;;;;;;;;;6.67;6.00;;;;;9.53;100.00;100873.75;6404292;22;45214;-83
2022/04/11 06:37:39;;;;;;;;;11.33;8.33;;;;;9.59;100.00;100864.50;6403213;22;45402;-88
2022/04/11 06:40:05;;;;;;;;;8.75;7.00;;;;;9.71;100.00;100881.69;6405876;22;45153;-83
2022/04/11 06:42:31;;;;;;;;;9.67;5.67;;;;;9.75;100.00;100864.38;6402990;22;46323;-84
2022/04/11 06:44:56;;;;;;;;;6.67;6.67;;;;;9.78;100.00;100861.91;6369614;22;45769;-84
2022/04/11 06:47:23;;;;;;;;;6.00;6.00;;;;;9.89;100.00;100872.94;6371678;22;45426;-84
2022/04/11 06:49:48;;;;;;;;;9.33;9.33;;;;;9.99;100.00;100859.47;6398883;22;45383;-84
2022/04/11 06:52:13;;;;;;;;;9.25;6.00;;;;;10.13;100.00;100854.88;6398498;22;46267;-84
2022/04/11 06:54:39;;;;;;;;;8.00;7.00;;;;;10.27;100.00;100857.28;6406563;22;45568;-85
2022/04/11 06:57:04;;;;;;;;;11.33;6.00;;;;;10.40;100.00;100861.41;6397452;22;45820;-85
2022/04/11 06:59:30;;;;;;;;;9.33;7.00;;;;;10.53;100.00;100862.03;6401276;22;45295;-84
2022/04/11 07:01:56;;;;;;;;;9.00;8.00;;;;;10.66;100.00;100864.41;6402277;22;46053;-85
2022/04/11 07:04:21;;;;;;;;;8.33;7.33;;;;;10.80;100.00;100862.41;6401184;22;45317;-85
2022/04/11 07:06:47;;;;;;;;;10.00;7.00;;;;;10.92;100.00;100863.81;6402270;22;45267;-84
2022/04/11 07:09:13;;;;;;;;;9.33;6.00;;;;;11.01;100.00;100847.56;6371963;22;45485;-84
2022/04/11 07:11:38;;;;;;;;;6.33;4.67;;;;;11.08;100.00;100843.50;6370140;22;46294;-84
2022/04/11 07:14:04;;;;;;;;;6.00;6.00;;;;;11.14;100.00;100841.13;6374704;22;45632;-84
2022/04/11 07:16:29;;;;;;;;;9.67;7.67;;;;;11.17;100.00;100830.75;6395639;22;45274;-84
2022/04/11 07:18:55;;;;;;;;;7.00;6.33;;;;;11.22;100.00;100833.59;6368291;22;45474;-84
2022/04/11 07:21:20;;;;;;;;;8.00;6.33;;;;;11.30;100.00;100829.56;6367375;22;47199;-84
2022/04/11 07:23:46;;;;;;;;;4.00;4.00;;;;;11.42;100.00;100825.66;6398077;22;45309;-84
2022/04/11 07:26:11;;;;;;;;;13.00;8.67;;;;;11.44;99.87;100821.41;6400133;22;45421;-84
2022/04/11 07:28:36;;;;;;;;;8.67;8.67;;;;;11.52;99.85;100822.59;6372135;22;45257;-85
2022/04/11 07:31:02;;;;;;;;;7.33;7.33;;;;;11.56;99.58;100824.56;6399556;22;46136;-85
2022/04/11 07:33:27;;;;;;;;;6.67;5.33;;;;;11.63;99.33;100828.31;6373880;22;45224;-85
2022/04/11 07:35:53;;;;;;;;;6.67;6.67;;;;;11.68;99.19;100824.16;6379946;22;45324;-84
2022/04/11 07:38:19;;;;;;;;;5.33;5.33;;;;;11.70;98.55;100822.47;6386636;22;50094;-84
2022/04/11 07:40:45;;;;;;;;;6.67;6.67;;;;;11.76;98.74;100819.22;6382467;22;45195;-84
2022/04/11 07:43:10;;;;;;;;;6.33;4.33;;;;;11.84;98.63;100820.44;6387034;22;45426;-84
2022/04/11 07:45:35;;;;;;;;;4.00;4.00;;;;;11.90;98.16;100813.66;6388977;22;45297;-85
2022/04/11 07:48:13;;;;;;;;;7.67;7.00;;;;;12.02;97.77;100829.03;6415922;22;45202;-84
2022/04/11 07:50:38;;;;;;;;;5.00;3.67;;;;;12.04;97.95;100816.81;6348724;22;47777;-85
2022/04/11 07:53:04;;;;;;;;;6.67;5.67;;;;;12.08;97.70;100802.97;6402151;22;45291;-84
2022/04/11 07:55:29;;;;;;;;;4.33;4.33;;;;;12.16;98.04;100805.94;6371989;22;45699;-85
2022/04/11 07:57:56;;;;;;;;;6.33;6.33;;;;;12.23;97.37;100810.63;6376593;22;45608;-85
2022/04/11 08:00:22;;;;;;;;;5.67;5.67;;;;;12.27;96.95;100794.09;6355310;22;45502;-84
2022/04/11 08:02:53;;;;;;;;;6.00;6.00;;;;;12.42;96.99;100803.41;6382753;22;45763;-86
2022/04/11 08:05:19;;;;;;;;;7.33;5.33;;;;;12.48;96.51;100800.13;6403469;22;45385;-86
2022/04/11 08:07:47;;;;;;;;;4.67;4.00;;;;;12.54;96.57;100796.84;6412663;22;45166;-87
2022/04/11 08:10:13;;;;;;;;;6.00;4.00;;;;;12.57;96.87;100789.06;6406746;22;45347;-87
2022/04/11 08:12:40;;;;;;;;;8.00;5.33;;;;;12.62;96.70;100784.88;6371228;22;45329;-86
2022/04/11 08:15:06;;;;;;;;;6.00;6.00;;;;;12.62;96.61;100779.59;6368075;22;45406;-87
2022/04/11 08:17:31;;;;;;;;;7.00;6.33;;;;;12.70;96.87;100785.16;6366467;22;45747;-86
2022/04/11 08:19:56;;;;;;;;;6.33;4.33;;;;;12.80;96.51;100800.47;6366352;22;47034;-87
2022/04/11 08:22:22;;;;;;;;;4.67;4.67;;;;;12.89;95.74;100798.97;6367539;22;45556;-86
2022/04/11 08:24:47;;;;;;;;;9.33;8.00;;;;;13.03;96.56;100797.78;6341527;22;45763;-86
2022/04/11 08:27:13;;;;;;;;;4.33;4.33;;;;;13.14;96.91;100792.84;6390554;22;45282;-87
2022/04/11 08:29:38;;;;;;;;;7.67;5.00;;;;;13.26;97.24;100781.88;6367448;22;47831;-87
2022/04/11 08:32:04;;;;;;;;;8.67;8.33;;;;;13.45;96.55;100784.25;6367938;22;45279;-86
2022/04/11 08:34:29;;;;;;;;;6.67;5.00;;;;;13.57;96.95;100779.41;6395962;22;45469;-87
2022/04/11 08:36:54;;;;;;;;;7.33;7.33;;;;;13.70;96.61;100774.56;6397189;22;47873;-86
2022/04/11 08:39:20;;;;;;;;;6.33;5.00;;;;;13.81;96.23;100774.91;6394443;22;46008;-86
2022/04/11 08:41:45;;;;;;;;;7.67;6.33;;;;;13.92;96.26;100769.94;6396053;22;45254;-86
2022/04/11 08:44:13;;;;;;;;;6.00;6.00;;;;;14.05;96.20;100773.88;6398096;22;45328;-86
2022/04/11 08:46:39;;;;;;;;;10.33;7.00;;;;;14.13;96.30;100767.09;6366020;22;45244;-86
2022/04/11 08:49:09;;;;;;;;;8.00;5.33;;;;;14.23;95.83;100759.47;6367709;22;47261;-87
2022/04/11 08:51:36;;;;;;;;;4.00;4.00;;;;;14.29;95.11;100751.75;6398903;22;45521;-87
2022/04/11 08:54:03;;;;;;;;;4.67;4.67;;;;;14.34;95.01;100743.94;6370581;22;45434;-85
2022/04/11 08:56:29;;;;;;;;;6.67;4.67;;;;;14.39;94.81;100739.69;6402240;22;45326;-86
2022/04/11 08:58:54;;;;;;;;;5.33;4.00;;;;;14.45;94.10;100745.16;6398763;22;45233;-87
2022/04/11 09:01:20;;;;;;;;;3.00;3.00;;;;;14.57;94.23;100741.97;6397797;22;45652;-88
2022/04/11 09:03:46;;;;;;;;;5.67;4.00;;;;;14.64;94.07;100743.03;6400243;22;45258;-87
2022/04/11 09:06:14;;;;;;;;;3.67;3.67;;;;;14.69;93.70;100732.63;6367869;22;45608;-86
2022/04/11 09:08:46;;;;;;;;;3.00;3.00;;;;;14.79;93.32;100725.84;6367059;22;47185;-87
2022/04/11 09:11:12;;;;;;;;;3.00;3.00;;;;;14.88;93.44;100733.16;6399304;22;45361;-86
2022/04/11 09:13:49;;;;;;;;;5.00;3.00;;;;;14.99;93.99;100730.81;6398103;22;45354;-86
2022/04/11 09:16:15;;;;;;;;;3.33;3.33;;;;;15.06;93.20;100731.03;6399411;22;45278;-86
2022/04/11 09:18:55;;;;;;;;;3.67;2.67;;;;;15.18;92.77;100738.38;6398593;22;45314;-87
2022/04/11 09:21:25;;;;;;;;;3.00;2.67;;;;;15.26;91.96;100735.03;6398694;22;45292;-86
2022/04/11 09:24:19;;;;;;;;;3.33;3.33;;;;;15.40;92.31;100735.38;6368899;22;45320;-87
2022/04/11 09:26:48;;;;;;;;;4.00;3.00;;;;;15.51;92.56;100733.88;6371654;22;45442;-86
2022/04/11 09:29:15;;;;;;;;;5.00;3.33;;;;;15.62;93.25;100713.00;6349472;22;46141;-87
2022/04/11 09:31:41;;;;;;;;;5.67;3.33;;;;;15.74;91.83;100719.44;6402692;22;45291;-86
2022/04/11 09:34:17;;;;;;;;;3.00;3.00;;;;;15.85;92.07;100720.56;6373499;22;45249;-87
2022/04/11 09:36:51;;;;;;;;;3.00;3.00;;;;;15.95;91.73;100723.47;6403218;22;45283;-87
2022/04/11 09:39:25;;;;;;;;;4.00;4.00;;;;;16.06;91.61;100716.66;6374378;22;45531;-87
2022/04/11 09:41:52;;;;;;;;;4.67;4.67;;;;;16.14;91.11;100703.59;6390511;22;45361;-87
2022/04/11 09:44:28;;;;;;;;;4.00;2.67;;;;;16.38;91.27;100707.63;6383166;22;45247;-87
2022/04/11 09:46:57;;;;;;;;;3.00;3.00;;;;;16.58;90.32;100709.78;6377298;22;45283;-87
2022/04/11 09:49:22;;;;;;;;;4.00;4.00;;;;;16.64;89.85;100694.00;6373622;22;45595;-86
2022/04/11 09:52:11;;;;;;;;;4.33;4.33;;;;;16.75;90.14;100699.50;6398997;22;45408;-86
2022/04/11 09:54:39;;;;;;;;;5.67;2.00;;;;;16.84;89.93;100696.13;6369537;22;45299;-85
2022/04/11 09:57:06;;;;;;;;;3.67;3.33;;;;;16.92;89.66;100696.28;6397482;22;45396;-85
2022/04/11 09:59:32;;;;;;;;;3.00;3.00;;;;;17.04;89.47;100695.59;6366381;22;47074;-88
2022/04/11 10:01:58;;;;;;;;;1.67;1.67;;;;;17.13;89.29;100697.53;6367702;22;45366;-87
2022/04/11 10:04:25;;;;;;;;;4.33;3.00;;;;;17.24;89.14;100691.56;6375101;22;45456;-93
2022/04/11 10:06:51;;;;;;;;;4.67;3.00;;;;;17.31;88.68;100685.47;6369125;22;45641;-87
2022/04/11 10:09:19;;;;;;;;;2.33;2.00;;;;;17.43;87.65;100687.44;6373939;22;47542;-84
2022/04/11 10:11:44;;;;;;;;;2.00;2.00;;;;;17.55;88.34;100680.53;6370721;22;45740;-85
2022/04/11 10:14:11;;;;;;;;;3.00;3.00;;;;;17.70;88.88;100687.84;6374012;22;45231;-84
2022/04/11 10:16:42;;;;;;;;;4.00;2.00;;;;;17.91;88.01;100678.41;6378687;22;45379;-87
2022/04/11 10:19:08;;;;;;;;;2.00;2.00;;;;;18.10;88.50;100687.50;6406153;22;45283;-88
2022/04/11 10:21:34;;;;;;;;;4.67;2.33;;;;;18.29;88.04;100686.00;6376217;22;45351;-88
2022/04/11 10:24:15;;;;;;;;;3.00;3.00;;;;;18.50;87.29;100683.59;6402372;22;45340;-86
2022/04/11 10:26:53;;;;;;;;;3.00;2.00;;;;;18.65;87.47;100664.25;6369869;22;45564;-86
2022/04/11 10:29:36;;;;;;;;;2.33;1.00;;;;;18.87;86.96;100669.78;6372262;22;46998;-90
2022/04/11 10:32:10;;;;;;;;;3.00;2.00;;;;;19.02;86.47;100665.50;6399058;22;45409;-87
2022/04/11 10:34:55;;;;;;;;;4.00;4.00;;;;;19.17;85.08;100652.28;6400549;22;45654;-89
2022/04/11 10:37:26;;;;;;;;;6.00;3.00;;;;;19.28;84.69;100646.19;6371029;22;45429;-89
2022/04/11 10:40:12;;;;;;;;;3.33;3.33;;;;;19.40;82.88;100654.31;6367587;22;48237;-89
2022/04/11 10:42:38;;;;;;;;;2.00;2.00;;;;;19.41;83.71;100644.53;6396579;22;45373;-89
2022/04/11 10:45:28;;;;;;;;;2.67;2.00;;;;;19.51;82.96;100646.38;6369355;22;52201;-87
2022/04/11 10:47:54;;;;;;;;;2.67;2.67;;;;;19.61;83.27;100644.66;6368059;22;45282;-88
2022/04/11 10:50:20;;;;;;;;;2.00;2.00;;;;;19.73;84.01;100643.84;6370388;22;48174;-88
2022/04/11 10:52:52;;;;;;;;;2.33;2.33;;;;;19.89;83.64;100638.59;6371097;22;45347;-89
2022/04/11 10:55:19;;;;;;;;;3.00;3.00;;;;;20.05;83.42;100636.00;6397733;22;45354;-89
2022/04/11 10:57:56;;;;;;;;;3.00;3.00;;;;;20.37;83.59;100635.25;6368638;22;45539;-88
2022/04/11 11:00:26;;;;;;;;;3.00;3.00;;;;;20.77;84.35;100626.44;6370088;22;47188;-89
2022/04/11 11:02:59;;;;;;;;;4.00;3.00;;;;;21.27;82.93;100622.00;6371210;22;45326;-88
2022/04/11 11:05:48;;;;;;;;;3.00;2.00;;;;;21.88;82.26;100600.50;6400195;22;45298;-89
2022/04/11 11:08:14;;;;;;;;;4.00;2.33;;;;;22.48;81.02;100616.22;6400683;22;45410;-89
2022/04/11 11:10:50;;;;;;;;;4.00;2.50;;;;;23.89;82.45;100615.84;6368063;22;47974;-89
2022/04/11 11:13:39;;;;;;;;;6.33;3.00;;;;;25.64;83.13;100613.16;6368597;22;45366;-88
2022/04/11 11:16:07;;;;;;;;;4.00;4.00;;;;;27.35;82.21;100614.63;6367053;22;45393;-88
2022/04/11 11:18:59;;;;;;;;;4.00;3.33;;;;;28.69;78.82;100613.41;6408972;22;45265;-89
2022/04/11 11:21:59;;;;;;;;;4.33;3.00;;;;;30.37;78.10;100626.41;6296888;22;47072;-88
2022/04/11 11:24:25;;;;;;;;;4.00;3.00;;;;;32.15;74.33;100631.44;6281403;22;45324;-89
2022/04/11 11:26:57;;;;;;;;;5.00;4.00;;;;;33.62;73.52;100635.91;6292694;22;44785;-91
2022/04/11 11:29:31;;;;;;;;;2.00;2.00;;;;;35.19;68.96;100641.63;6315557;22;45208;-89
2022/04/11 11:32:04;;;;;;;;;3.50;3.50;;;;;36.34;68.29;100637.25;6324754;22;48186;-89
2022/04/11 11:37:20;;;;;;;;;3.00;3.00;;;;;38.08;60.84;100630.88;6369721;22;46171;-89